Villa Nueva, Texas
Current Conditions -  °F | °C
As of 12:41 AM on Wednesday 28 Jan 2015 (Local Time) from KBRO Reporting Station
Haze Haze  
Wind Chill: 55°   Ceiling: NA
Heat Index: 55°   Visibility: 1.7mi
Dew Point: 54°   Wind: 5mph
Humidity: 96%   Direction: 180°S
Pressure: 30.18"   Gusts: NA
Location:  26.0002°N, 97.5729°W
Report Text: KBRO 280641Z AUTO 18004KT 1 3/4SM BR 13/12 A3018 RMK AO2 T01280122 $
Loading
Personal Weather Stations






























Interactive Weather Map New forecast layout! Learn more

10-Day Weather Forecast

Advertisements
Track Severe Weather on mobile